createdAt,value
2023-05-14T00:02:18.537Z,75.25
2023-05-14T00:05:21.379Z,73.58
2023-05-14T00:08:23.725Z,74.06
2023-05-14T00:11:26.395Z,74.46
2023-05-14T00:14:28.739Z,74.68
2023-05-14T00:17:31.415Z,74.81
2023-05-14T00:20:33.756Z,73.96
2023-05-14T00:23:36.493Z,73.34
2023-05-14T00:26:38.765Z,73.50
2023-05-14T00:29:41.340Z,73.39
2023-05-14T00:32:43.780Z,73.29
2023-05-14T00:35:46.393Z,73.27
2023-05-14T00:38:49.413Z,73.42
2023-05-14T00:41:52.017Z,73.89
2023-05-14T00:44:54.417Z,73.45
2023-05-14T00:47:57.187Z,73.21
2023-05-14T00:50:59.760Z,72.75
2023-05-14T00:54:02.794Z,72.77
2023-05-14T00:57:06.754Z,72.80
2023-05-14T01:00:10.010Z,72.70
2023-05-14T01:03:12.411Z,72.86
2023-05-14T01:06:34.169Z,72.95
2023-05-14T01:09:46.440Z,73.08
2023-05-14T01:13:13.100Z,73.24
2023-05-14T01:16:18.812Z,73.30
2023-05-14T01:19:29.815Z,73.36
2023-05-14T01:22:32.107Z,73.69
2023-05-14T01:25:35.453Z,73.60
2023-05-14T01:28:38.467Z,73.67
2023-05-14T01:31:44.152Z,73.75
2023-05-14T01:34:48.741Z,73.93
2023-05-14T01:37:53.490Z,74.33
2023-05-14T01:40:57.489Z,74.18
2023-05-14T01:44:00.151Z,74.41
2023-05-14T01:47:02.474Z,74.60
2023-05-14T01:50:05.514Z,74.85
2023-05-14T01:53:07.901Z,75.12
2023-05-14T01:56:10.603Z,75.09
2023-05-14T01:59:12.990Z,75.32
2023-05-14T02:02:15.884Z,75.10
2023-05-14T02:05:18.909Z,75.32
2023-05-14T02:08:21.750Z,75.50
2023-05-14T02:11:24.434Z,75.53
2023-05-14T02:14:27.040Z,75.52
2023-05-14T02:17:29.798Z,75.40
2023-05-14T02:20:32.393Z,75.37
2023-05-14T02:23:41.552Z,75.28
2023-05-14T02:26:45.050Z,75.32
2023-05-14T02:29:47.619Z,75.29
2023-05-14T02:32:50.538Z,75.22
2023-05-14T02:35:52.951Z,75.12
2023-05-14T02:38:55.599Z,75.13
2023-05-14T02:41:58.053Z,75.31
2023-05-14T02:45:00.790Z,75.07
2023-05-14T02:48:03.207Z,75.05
2023-05-14T02:51:06.281Z,75.02
2023-05-14T02:54:08.670Z,75.25
2023-05-14T02:57:11.264Z,75.38
2023-05-14T03:00:13.849Z,75.33
2023-05-14T03:03:18.874Z,75.10
2023-05-14T03:06:22.166Z,75.21
2023-05-14T03:09:25.006Z,75.10
2023-05-14T03:12:27.415Z,75.49
2023-05-14T03:15:30.068Z,75.27
2023-05-14T03:18:33.457Z,76.62
2023-05-14T03:21:36.114Z,75.14
2023-05-14T03:24:40.335Z,75.16
2023-05-14T03:27:42.944Z,74.73
2023-05-14T03:30:45.527Z,74.64
2023-05-14T03:33:48.185Z,75.51
2023-05-14T03:36:50.651Z,74.74
2023-05-14T03:39:53.221Z,74.36
2023-05-14T03:42:56.105Z,74.85
2023-05-14T03:45:58.881Z,75.07
2023-05-14T03:49:01.646Z,74.33
2023-05-14T03:52:04.756Z,74.21
2023-05-14T03:55:07.488Z,74.44
2023-05-14T03:58:14.237Z,73.24
2023-05-14T04:01:16.849Z,72.87
2023-05-14T04:04:19.549Z,73.01
2023-05-14T04:07:22.029Z,72.71
2023-05-14T04:10:24.886Z,72.70
2023-05-14T04:13:28.904Z,72.44
2023-05-14T04:16:31.578Z,72.29
2023-05-14T04:19:33.907Z,72.26
2023-05-14T04:22:36.609Z,72.55
2023-05-14T04:25:38.909Z,72.22
2023-05-14T04:28:41.502Z,72.59
2023-05-14T04:31:44.726Z,72.06
2023-05-14T04:34:47.483Z,72.11
2023-05-14T04:37:49.769Z,71.76
2023-05-14T04:40:52.331Z,72.40
2023-05-14T04:43:56.596Z,71.75
2023-05-14T04:46:59.181Z,71.42
2023-05-14T04:50:01.635Z,71.92
2023-05-14T04:53:04.389Z,72.07
2023-05-14T04:56:06.898Z,71.43
2023-05-14T04:59:09.559Z,71.78
2023-05-14T05:02:11.858Z,71.86
2023-05-14T05:05:14.515Z,70.97
2023-05-14T05:08:16.894Z,71.51
2023-05-14T05:11:19.428Z,70.81
2023-05-14T05:14:21.799Z,70.94
2023-05-14T05:17:25.473Z,71.73
2023-05-14T05:20:28.345Z,71.87
2023-05-14T05:23:30.948Z,71.78
2023-05-14T05:26:33.303Z,72.45
2023-05-14T05:29:36.560Z,71.66
2023-05-14T05:32:39.183Z,72.72
2023-05-14T05:35:41.932Z,71.62
2023-05-14T05:38:44.267Z,72.00
2023-05-14T05:41:46.898Z,72.46
2023-05-14T05:44:49.463Z,72.48
2023-05-14T05:47:52.458Z,72.71
2023-05-14T05:50:54.928Z,71.52
2023-05-14T05:53:58.015Z,72.45
2023-05-14T05:57:00.822Z,72.23
2023-05-14T06:00:12.897Z,72.48
2023-05-14T06:03:15.170Z,71.73
2023-05-14T06:06:17.813Z,72.20
2023-05-14T06:09:20.887Z,71.91
2023-05-14T06:12:23.513Z,72.13
2023-05-14T06:15:25.932Z,73.25
2023-05-14T06:18:28.551Z,72.34
2023-05-14T06:21:30.876Z,72.91
2023-05-14T06:24:33.601Z,72.80
2023-05-14T06:27:36.319Z,72.72
2023-05-14T06:30:38.941Z,72.59
2023-05-14T06:33:41.381Z,73.32
2023-05-14T06:36:44.025Z,73.11
2023-05-14T06:39:50.144Z,73.49
2023-05-14T06:42:52.920Z,73.84
2023-05-14T06:45:55.645Z,74.04
2023-05-14T06:48:59.656Z,74.14
2023-05-14T06:52:02.281Z,73.47
2023-05-14T06:55:05.278Z,73.82
2023-05-14T06:58:09.491Z,74.34
2023-05-14T07:01:12.131Z,75.02
2023-05-14T07:04:14.509Z,74.20
2023-05-14T07:07:20.687Z,74.65
2023-05-14T07:10:23.492Z,74.79
2023-05-14T07:13:28.807Z,74.26
2023-05-14T07:16:31.292Z,74.69
2023-05-14T07:19:33.897Z,74.03
2023-05-14T07:22:36.224Z,73.56
2023-05-14T07:25:39.313Z,73.97
2023-05-14T07:28:41.628Z,73.59
2023-05-14T07:31:44.530Z,73.40
2023-05-14T07:34:47.059Z,72.65
2023-05-14T07:37:49.841Z,73.16
2023-05-14T07:40:52.183Z,72.60
2023-05-14T07:43:54.957Z,72.39
2023-05-14T07:46:57.322Z,71.93
2023-05-14T07:50:00.001Z,72.54
2023-05-14T07:53:02.366Z,72.95
2023-05-14T07:56:05.329Z,72.20
2023-05-14T07:59:07.655Z,72.53
2023-05-14T08:02:12.694Z,72.81
2023-05-14T08:05:15.912Z,72.41
2023-05-14T08:08:18.354Z,72.22
2023-05-14T08:11:22.430Z,72.51
2023-05-14T08:14:24.931Z,72.69
2023-05-14T08:17:27.712Z,72.46
2023-05-14T08:20:31.194Z,72.18
2023-05-14T08:23:33.998Z,72.46
2023-05-14T08:26:36.485Z,72.69
2023-05-14T08:29:39.133Z,72.69
2023-05-14T08:32:42.828Z,73.10
2023-05-14T08:35:45.944Z,73.26
2023-05-14T08:38:50.429Z,74.16
2023-05-14T08:41:53.684Z,73.85
2023-05-14T08:45:05.835Z,74.10
2023-05-14T08:48:15.934Z,74.50
2023-05-14T08:51:19.377Z,74.27
2023-05-14T08:54:23.844Z,74.69
2023-05-14T08:57:28.532Z,74.36
2023-05-14T09:00:33.943Z,73.86
2023-05-14T09:03:37.464Z,74.23
2023-05-14T09:06:42.356Z,74.78
2023-05-14T09:09:45.957Z,75.28
2023-05-14T09:12:48.546Z,75.04
2023-05-14T09:15:51.349Z,74.02
2023-05-14T09:18:55.403Z,74.96
2023-05-14T09:21:59.324Z,75.33
2023-05-14T09:25:12.500Z,75.06
2023-05-14T09:28:18.751Z,75.12
2023-05-14T09:31:21.660Z,75.74
2023-05-14T09:34:32.475Z,75.30
2023-05-14T09:37:37.290Z,76.13
2023-05-14T09:40:54.430Z,76.06
2023-05-14T09:43:58.224Z,75.92
2023-05-14T09:47:07.171Z,75.90
2023-05-14T09:50:13.337Z,76.06
2023-05-14T09:53:19.462Z,76.04
2023-05-14T09:56:22.420Z,75.80
2023-05-14T09:59:24.878Z,76.02
2023-05-14T10:02:36.941Z,75.60
2023-05-14T10:05:51.287Z,75.84
2023-05-14T10:08:59.967Z,76.48
2023-05-14T10:12:04.584Z,76.87
2023-05-14T10:15:24.235Z,77.34
2023-05-14T10:18:31.137Z,77.03
2023-05-14T10:21:36.600Z,76.95
2023-05-14T10:24:41.549Z,77.10
2023-05-14T10:27:44.254Z,76.84
2023-05-14T10:30:47.118Z,77.14
2023-05-14T10:33:50.974Z,76.79
2023-05-14T10:37:00.876Z,77.07
2023-05-14T10:40:06.248Z,76.08
2023-05-14T10:43:11.348Z,77.43
2023-05-14T10:46:14.769Z,77.63
2023-05-14T10:49:28.833Z,76.99
2023-05-14T10:52:44.540Z,77.14
2023-05-14T10:55:49.768Z,77.12
2023-05-14T10:58:52.371Z,76.61
2023-05-14T11:01:57.444Z,76.49
2023-05-14T11:05:04.280Z,76.84
2023-05-14T11:08:09.031Z,76.74
2023-05-14T11:11:11.574Z,76.40
2023-05-14T11:14:14.405Z,76.66
2023-05-14T11:17:17.122Z,76.79
2023-05-14T11:20:21.150Z,77.08
2023-05-14T11:23:25.485Z,77.43
2023-05-14T11:26:28.115Z,77.94
2023-05-14T11:29:30.565Z,78.11
2023-05-14T11:32:33.657Z,78.93
2023-05-14T11:35:36.852Z,78.99
2023-05-14T11:38:50.622Z,79.34
2023-05-14T11:41:53.246Z,79.31
2023-05-14T11:44:55.940Z,79.24
2023-05-14T11:47:58.404Z,80.11
2023-05-14T11:51:01.082Z,80.26
2023-05-14T11:54:04.049Z,79.48
2023-05-14T11:57:33.131Z,79.75
2023-05-14T12:00:35.626Z,79.71
2023-05-14T12:03:38.463Z,79.37
2023-05-14T12:06:41.065Z,80.22
2023-05-14T12:09:50.630Z,80.30
2023-05-14T12:12:52.954Z,80.80
2023-05-14T12:15:58.285Z,81.27
2023-05-14T12:19:01.804Z,80.97
2023-05-14T12:22:04.598Z,81.37
2023-05-14T12:25:13.639Z,81.15
2023-05-14T12:28:17.504Z,82.17
2023-05-14T12:31:28.289Z,81.77
2023-05-14T12:34:30.999Z,82.22
2023-05-14T12:37:34.077Z,82.61
2023-05-14T12:40:36.768Z,82.15
2023-05-14T12:43:42.588Z,82.70
2023-05-14T12:46:45.406Z,82.53
2023-05-14T12:49:47.845Z,82.90
2023-05-14T12:52:50.474Z,83.18
2023-05-14T12:55:52.943Z,83.36
2023-05-14T12:58:56.623Z,83.89
2023-05-14T13:01:58.956Z,84.20
2023-05-14T13:05:02.832Z,84.31
2023-05-14T13:08:05.292Z,84.57
2023-05-14T13:11:08.401Z,85.49
2023-05-14T13:14:10.743Z,85.75
2023-05-14T13:17:13.456Z,85.64
2023-05-14T13:20:17.829Z,85.81
2023-05-14T13:23:20.390Z,86.56
2023-05-14T13:26:22.828Z,86.65
2023-05-14T13:29:25.614Z,86.70
2023-05-14T13:32:27.962Z,87.18
2023-05-14T13:35:30.624Z,87.49
2023-05-14T13:38:32.955Z,87.64
2023-05-14T13:41:37.800Z,87.65
2023-05-14T13:44:40.253Z,87.90
2023-05-14T13:47:42.939Z,88.50
2023-05-14T13:50:45.500Z,88.30
2023-05-14T13:53:48.114Z,88.51
2023-05-14T13:56:50.510Z,88.52
2023-05-14T13:59:53.240Z,88.83
2023-05-14T14:02:55.731Z,88.84
2023-05-14T14:05:58.367Z,89.19
2023-05-14T14:09:00.936Z,89.59
2023-05-14T14:12:04.521Z,89.55
2023-05-14T14:15:07.722Z,89.62
2023-05-14T14:18:10.417Z,89.62
2023-05-14T14:21:12.878Z,89.75
2023-05-14T14:24:15.603Z,89.77
2023-05-14T14:27:18.314Z,90.09
2023-05-14T14:30:21.007Z,90.02
2023-05-14T14:33:23.353Z,90.15
2023-05-14T14:36:26.077Z,90.49
2023-05-14T14:39:28.418Z,90.63
2023-05-14T14:42:31.506Z,90.93
2023-05-14T14:45:33.847Z,91.13
2023-05-14T14:48:41.224Z,91.20
2023-05-14T14:51:43.786Z,91.12
2023-05-14T14:54:46.376Z,90.87
2023-05-14T14:57:48.733Z,91.06
2023-05-14T15:00:53.720Z,90.55
2023-05-14T15:03:56.200Z,89.98
2023-05-14T15:06:59.120Z,90.10
2023-05-14T15:10:01.652Z,90.28
2023-05-14T15:13:05.936Z,90.31
2023-05-14T15:16:08.320Z,89.97
2023-05-14T15:19:10.934Z,90.23
2023-05-14T15:22:13.508Z,90.01
2023-05-14T15:25:16.188Z,89.91
2023-05-14T15:28:18.519Z,89.91
2023-05-14T15:31:21.424Z,90.10
2023-05-14T15:34:23.846Z,90.33
2023-05-14T15:37:27.023Z,90.30
2023-05-14T15:40:29.600Z,90.53
2023-05-14T15:43:32.297Z,90.43
2023-05-14T15:46:34.742Z,90.23
2023-05-14T15:49:37.374Z,90.25
2023-05-14T15:52:40.104Z,90.13
2023-05-14T15:55:42.857Z,90.61
2023-05-14T15:58:45.167Z,90.87
2023-05-14T16:01:48.001Z,91.09
2023-05-14T16:04:50.702Z,91.20
2023-05-14T16:07:53.101Z,91.01
2023-05-14T16:10:55.760Z,91.34
2023-05-14T16:13:58.508Z,91.50
2023-05-14T16:17:02.152Z,91.39
2023-05-14T16:20:05.373Z,91.48
2023-05-14T16:23:07.943Z,91.53
2023-05-14T16:26:11.039Z,91.03
2023-05-14T16:29:13.671Z,91.21
2023-05-14T16:32:16.325Z,91.02
2023-05-14T16:35:19.048Z,90.90
2023-05-14T16:38:21.547Z,90.83
2023-05-14T16:41:24.191Z,91.10
2023-05-14T16:44:26.545Z,91.21
2023-05-14T16:47:30.519Z,90.94
2023-05-14T16:50:32.904Z,91.46
2023-05-14T16:53:35.796Z,91.23
2023-05-14T16:56:38.250Z,91.69
2023-05-14T16:59:41.108Z,91.78
2023-05-14T17:02:44.085Z,91.95
2023-05-14T17:05:46.767Z,91.94
2023-05-14T17:08:49.117Z,92.29
2023-05-14T17:11:51.787Z,92.22
2023-05-14T17:14:54.135Z,92.40
2023-05-14T17:17:56.866Z,92.27
2023-05-14T17:20:59.356Z,92.59
2023-05-14T17:24:01.972Z,92.87
2023-05-14T17:27:04.961Z,92.76
2023-05-14T17:30:08.524Z,92.71
2023-05-14T17:33:11.541Z,93.18
2023-05-14T17:36:14.289Z,92.91
2023-05-14T17:39:16.648Z,93.09
2023-05-14T17:42:19.321Z,93.05
2023-05-14T17:45:21.929Z,93.50
2023-05-14T17:48:24.787Z,93.58
2023-05-14T17:51:27.146Z,93.55
2023-05-14T17:54:29.784Z,94.03
2023-05-14T17:57:32.153Z,93.89
2023-05-14T18:00:35.335Z,93.93
2023-05-14T18:03:38.252Z,93.82
2023-05-14T18:06:40.741Z,94.18
2023-05-14T18:09:43.363Z,93.66
2023-05-14T18:12:45.948Z,93.98
2023-05-14T18:15:48.626Z,93.97
2023-05-14T18:18:50.978Z,94.06
2023-05-14T18:21:55.528Z,93.71
2023-05-14T18:24:57.968Z,93.48
2023-05-14T18:28:00.732Z,93.58
2023-05-14T18:31:04.372Z,94.21
2023-05-14T18:34:06.978Z,94.21
2023-05-14T18:37:09.779Z,94.03
2023-05-14T18:40:16.901Z,93.91
2023-05-14T18:43:20.818Z,93.39
2023-05-14T18:46:23.990Z,93.71
2023-05-14T18:49:26.414Z,93.68
2023-05-14T18:52:29.145Z,93.92
2023-05-14T18:55:31.731Z,94.17
2023-05-14T18:58:34.431Z,94.11
2023-05-14T19:01:36.909Z,94.41
2023-05-14T19:04:51.179Z,94.86
2023-05-14T19:07:54.519Z,94.43
2023-05-14T19:10:57.102Z,93.85
2023-05-14T19:13:59.666Z,94.38
2023-05-14T19:17:02.780Z,94.31
2023-05-14T19:20:06.479Z,94.80
2023-05-14T19:23:08.947Z,95.10
2023-05-14T19:26:11.445Z,95.10
2023-05-14T19:29:14.325Z,94.87
2023-05-14T19:32:16.658Z,95.48
2023-05-14T19:35:19.371Z,95.89
2023-05-14T19:38:22.060Z,95.72
2023-05-14T19:41:24.668Z,95.55
2023-05-14T19:44:27.024Z,95.65
2023-05-14T19:47:29.791Z,95.83
2023-05-14T19:50:32.193Z,96.42
2023-05-14T19:53:34.764Z,96.35
2023-05-14T19:56:38.319Z,96.56
2023-05-14T19:59:41.445Z,96.59
2023-05-14T20:02:44.049Z,96.26
2023-05-14T20:05:46.956Z,96.26
2023-05-14T20:08:49.481Z,96.61
2023-05-14T20:11:52.100Z,96.20
2023-05-14T20:14:54.600Z,96.75
2023-05-14T20:17:57.891Z,96.06
2023-05-14T20:21:00.666Z,96.09
2023-05-14T20:24:03.456Z,96.10
2023-05-14T20:27:06.108Z,96.10
2023-05-14T20:30:09.165Z,95.99
2023-05-14T20:33:13.392Z,96.08
2023-05-14T20:36:16.377Z,96.15
2023-05-14T20:39:18.831Z,96.14
2023-05-14T20:42:21.467Z,95.80
2023-05-14T20:45:24.037Z,95.90
2023-05-14T20:48:26.962Z,96.15
2023-05-14T20:51:29.265Z,95.97
2023-05-14T20:54:31.904Z,96.46
2023-05-14T20:57:34.373Z,95.91
2023-05-14T21:00:37.074Z,96.36
2023-05-14T21:03:39.469Z,96.72
2023-05-14T21:06:42.304Z,97.07
2023-05-14T21:09:46.518Z,96.73
2023-05-14T21:12:49.145Z,96.83
2023-05-14T21:15:51.622Z,96.83
2023-05-14T21:18:54.380Z,96.58
2023-05-14T21:21:56.737Z,96.37
2023-05-14T21:24:59.417Z,96.48
2023-05-14T21:28:01.746Z,96.29
2023-05-14T21:31:04.354Z,95.75
2023-05-14T21:34:06.730Z,95.49
2023-05-14T21:37:09.373Z,95.68
2023-05-14T21:40:12.670Z,95.42
2023-05-14T21:43:15.471Z,95.73
2023-05-14T21:46:18.512Z,96.17
2023-05-14T21:49:21.094Z,96.04
2023-05-14T21:52:23.409Z,95.89
2023-05-14T21:55:27.775Z,96.40
2023-05-14T21:58:30.461Z,96.23
2023-05-14T22:01:35.635Z,96.48
2023-05-14T22:04:44.877Z,96.47
2023-05-14T22:07:47.659Z,96.27
2023-05-14T22:10:50.380Z,96.01
2023-05-14T22:13:52.690Z,95.62
2023-05-14T22:16:55.559Z,95.38
2023-05-14T22:19:57.971Z,95.38
2023-05-14T22:23:03.028Z,95.21
2023-05-14T22:26:05.430Z,95.06
2023-05-14T22:29:08.071Z,94.89
2023-05-14T22:32:10.460Z,95.00
2023-05-14T22:35:13.137Z,94.66
2023-05-14T22:38:15.639Z,94.37
2023-05-14T22:41:18.246Z,94.37
2023-05-14T22:44:21.670Z,94.30
2023-05-14T22:47:25.273Z,94.59
2023-05-14T22:50:27.604Z,94.69
2023-05-14T22:53:30.247Z,95.20
2023-05-14T22:56:32.586Z,94.92
2023-05-14T22:59:35.213Z,95.02
2023-05-14T23:02:37.557Z,94.91
2023-05-14T23:05:40.215Z,94.73
2023-05-14T23:08:42.512Z,94.87
2023-05-14T23:11:46.097Z,94.40
2023-05-14T23:14:48.394Z,94.99
2023-05-14T23:17:51.087Z,94.91
2023-05-14T23:20:53.547Z,95.12
2023-05-14T23:23:56.144Z,95.00
2023-05-14T23:26:58.516Z,94.86
2023-05-14T23:30:01.194Z,95.29
2023-05-14T23:33:03.708Z,95.89
2023-05-14T23:36:06.980Z,95.86
2023-05-14T23:39:09.503Z,96.01
2023-05-14T23:42:12.078Z,96.03
2023-05-14T23:45:14.408Z,96.28
2023-05-14T23:48:17.035Z,96.45
2023-05-14T23:51:19.389Z,96.59
2023-05-14T23:54:22.002Z,96.81
2023-05-14T23:57:24.406Z,96.58
